Time;durP1;ratioP1;P1;durP2;ratioP2;P2;SDS_P1;SDS_P2;PMS_P1;PMS_P2;Temp;Humidity;BMP_temperature;BMP_pressure;BME280_temperature;BME280_humidity;BME280_pressure;Samples;Min_cycle;Max_cycle;Signal;HPM_P1;HPM_P2
2022/09/30 00:02:14;;;;;;;18.00;12.68;;;;;;;;;;5011178;28;20014;-38
2022/09/30 00:04:39;;;;;;;16.27;11.30;;;;;;;;;;5011420;28;20026;-37
2022/09/30 00:07:04;;;;;;;22.27;12.27;;;;;;;;;;5011576;28;20294;-40
2022/09/30 00:09:29;;;;;;;16.00;11.50;;;;;;;;;;5011110;28;20053;-38
2022/09/30 00:11:55;;;;;;;17.30;11.38;;;;;;;;;;5011720;28;20263;-38
2022/09/30 00:14:21;;;;;;;14.43;10.97;;;;;;;;;;5010684;28;20022;-38
2022/09/30 00:16:46;;;;;;;13.52;10.32;;;;;;;;;;5011106;28;20234;-38
2022/09/30 00:19:12;;;;;;;16.52;11.55;;;;;;;;;;5011033;28;20385;-38
2022/09/30 00:21:37;;;;;;;17.23;11.68;;;;;;;;;;5011541;28;20018;-37
2022/09/30 00:24:03;;;;;;;14.27;9.88;;;;;;;;;;5011422;28;20043;-37
2022/09/30 00:26:28;;;;;;;20.42;11.07;;;;;;;;;;5010967;28;20396;-38
2022/09/30 00:28:55;;;;;;;15.02;11.15;;;;;;;;;;5010656;28;20022;-38
2022/09/30 00:31:22;;;;;;;16.48;10.52;;;;;;;;;;5011105;28;20029;-39
2022/09/30 00:34:05;;;;;;;14.77;10.27;;;;;;;;;;5026348;28;20018;-38
2022/09/30 00:36:31;;;;;;;19.73;11.68;;;;;;;;;;5030928;28;20032;-38
2022/09/30 00:38:56;;;;;;;17.98;9.98;;;;;;;;;;5031639;28;20033;-38
2022/09/30 00:41:21;;;;;;;18.02;11.38;;;;;;;;;;5034848;28;20026;-37
2022/09/30 00:43:52;;;;;;;16.23;11.60;;;;;;;;;;5034636;28;20017;-37
2022/09/30 00:46:28;;;;;;;16.05;10.75;;;;;;;;;;5035117;28;20371;-37
2022/09/30 00:48:55;;;;;;;16.80;10.65;;;;;;;;;;5032910;28;20051;-38
2022/09/30 00:51:26;;;;;;;17.52;11.13;;;;;;;;;;5034741;28;20369;-38
2022/09/30 00:53:53;;;;;;;14.95;10.80;;;;;;;;;;5035035;28;20013;-39
2022/09/30 00:56:27;;;;;;;14.98;10.35;;;;;;;;;;5033250;28;20381;-39
2022/09/30 00:59:00;;;;;;;16.27;11.43;;;;;;;;;;5033970;28;20030;-38
2022/09/30 01:01:25;;;;;;;17.75;11.23;;;;;;;;;;5034552;28;20060;-38
2022/09/30 01:03:53;;;;;;;22.58;12.05;;;;;;;;;;5034515;28;20453;-38
2022/09/30 01:06:20;;;;;;;17.90;11.85;;;;;;;;;;5034500;28;20112;-39
2022/09/30 01:08:46;;;;;;;18.45;11.82;;;;;;;;;;5033782;28;20115;-39
2022/09/30 01:11:13;;;;;;;17.33;11.40;;;;;;;;;;5034680;28;20443;-38
2022/09/30 01:13:39;;;;;;;16.48;10.77;;;;;;;;;;5034192;28;20024;-39
2022/09/30 01:16:15;;;;;;;15.65;11.20;;;;;;;;;;5034761;28;20381;-38
2022/09/30 01:18:59;;;;;;;14.82;11.23;;;;;;;;;;5033677;28;20024;-38
2022/09/30 01:21:37;;;;;;;11.88;9.25;;;;;;;;;;5034264;28;20028;-39
2022/09/30 01:24:02;;;;;;;12.45;9.77;;;;;;;;;;5032768;28;20387;-38
2022/09/30 01:26:40;;;;;;;14.97;11.17;;;;;;;;;;5034027;28;20029;-38
2022/09/30 01:29:08;;;;;;;16.67;11.65;;;;;;;;;;5033350;28;20108;-37
2022/09/30 01:31:33;;;;;;;18.17;11.77;;;;;;;;;;5033847;28;20032;-38
2022/09/30 01:34:08;;;;;;;16.57;11.67;;;;;;;;;;5016591;28;20390;-38
2022/09/30 01:36:33;;;;;;;16.52;11.57;;;;;;;;;;5013272;28;20044;-38
2022/09/30 01:39:04;;;;;;;15.93;11.57;;;;;;;;;;5013275;28;20474;-38
2022/09/30 01:41:41;;;;;;;17.88;10.80;;;;;;;;;;5014469;28;20098;-39
2022/09/30 01:44:16;;;;;;;13.55;10.65;;;;;;;;;;5013781;28;20018;-38
2022/09/30 01:47:00;;;;;;;17.30;11.45;;;;;;;;;;5014090;28;20057;-38
2022/09/30 01:49:34;;;;;;;17.48;11.70;;;;;;;;;;5013291;28;20034;-37
2022/09/30 01:52:08;;;;;;;21.35;12.95;;;;;;;;;;5013333;28;20037;-38
2022/09/30 01:54:41;;;;;;;17.83;13.02;;;;;;;;;;5013608;28;20108;-38
2022/09/30 01:57:10;;;;;;;22.85;12.80;;;;;;;;;;5013750;28;20468;-38
2022/09/30 01:59:38;;;;;;;20.00;12.35;;;;;;;;;;5013684;28;20401;-37
2022/09/30 02:02:17;;;;;;;17.25;11.40;;;;;;;;;;5013650;28;20025;-38
2022/09/30 02:04:46;;;;;;;21.07;12.23;;;;;;;;;;5013523;28;20029;-38
2022/09/30 02:07:25;;;;;;;21.23;12.85;;;;;;;;;;5012940;28;20287;-38
2022/09/30 02:09:54;;;;;;;14.95;11.50;;;;;;;;;;5013179;28;20038;-40
2022/09/30 02:12:20;;;;;;;18.58;12.18;;;;;;;;;;5013541;28;20021;-37
2022/09/30 02:15:15;;;;;;;19.38;11.88;;;;;;;;;;5013124;28;20095;-37
2022/09/30 02:17:45;;;;;;;18.38;11.68;;;;;;;;;;5015882;28;20042;-38
2022/09/30 02:20:23;;;;;;;18.42;11.80;;;;;;;;;;5012760;28;20021;-38
2022/09/30 02:22:50;;;;;;;18.08;11.43;;;;;;;;;;5012570;28;20496;-38
2022/09/30 02:25:19;;;;;;;16.77;11.95;;;;;;;;;;5012196;28;20037;-37
2022/09/30 02:27:48;;;;;;;17.50;11.93;;;;;;;;;;5013365;28;20026;-37
2022/09/30 02:30:13;;;;;;;27.10;12.00;;;;;;;;;;5011598;28;20481;-38
2022/09/30 02:32:38;;;;;;;19.23;11.75;;;;;;;;;;5019301;28;20035;-40
2022/09/30 02:35:06;;;;;;;20.57;12.63;;;;;;;;;;5032981;28;20022;-37
2022/09/30 02:37:36;;;;;;;17.42;11.82;;;;;;;;;;5032234;28;20365;-38
2022/09/30 02:40:12;;;;;;;16.83;11.65;;;;;;;;;;5032468;28;20033;-37
2022/09/30 02:42:38;;;;;;;20.38;11.98;;;;;;;;;;5032442;28;20405;-37
2022/09/30 02:45:12;;;;;;;15.73;11.48;;;;;;;;;;5032807;28;20025;-37
2022/09/30 02:47:43;;;;;;;15.57;11.38;;;;;;;;;;5032361;28;20163;-38
2022/09/30 02:50:16;;;;;;;20.70;12.90;;;;;;;;;;5032260;28;20022;-37
2022/09/30 02:52:53;;;;;;;16.23;11.82;;;;;;;;;;5032021;28;20060;-38
2022/09/30 02:55:18;;;;;;;18.15;11.60;;;;;;;;;;5032460;28;20526;-37
2022/09/30 02:57:46;;;;;;;18.88;12.27;;;;;;;;;;5032333;28;20048;-37
2022/09/30 03:00:12;;;;;;;19.10;12.93;;;;;;;;;;5032375;28;20369;-38
2022/09/30 03:02:38;;;;;;;16.73;13.13;;;;;;;;;;5032238;28;20030;-37
2022/09/30 03:05:03;;;;;;;18.33;12.43;;;;;;;;;;5032124;28;20044;-37
2022/09/30 03:07:28;;;;;;;23.30;15.20;;;;;;;;;;5031819;28;20049;-38
2022/09/30 03:09:55;;;;;;;20.80;13.98;;;;;;;;;;5031862;28;20055;-37
2022/09/30 03:12:29;;;;;;;18.55;13.43;;;;;;;;;;5032006;28;20021;-38
2022/09/30 03:15:04;;;;;;;21.13;13.57;;;;;;;;;;5031052;28;20032;-38
2022/09/30 03:17:35;;;;;;;21.80;14.57;;;;;;;;;;5031838;28;20493;-37
2022/09/30 03:20:03;;;;;;;22.13;15.32;;;;;;;;;;5030440;28;20366;-38
2022/09/30 03:22:44;;;;;;;21.15;14.25;;;;;;;;;;5032013;28;20026;-37
2022/09/30 03:25:12;;;;;;;25.63;15.98;;;;;;;;;;5031235;28;20032;-37
2022/09/30 03:27:44;;;;;;;22.48;15.18;;;;;;;;;;5031266;28;20064;-37
2022/09/30 03:30:15;;;;;;;27.25;17.00;;;;;;;;;;5031620;28;20024;-39
2022/09/30 03:32:44;;;;;;;23.10;15.60;;;;;;;;;;5025274;28;20037;-39
2022/09/30 03:35:18;;;;;;;25.55;16.73;;;;;;;;;;5012226;28;20033;-39
2022/09/30 03:37:44;;;;;;;26.52;16.75;;;;;;;;;;5011170;28;20505;-37
2022/09/30 03:40:16;;;;;;;26.10;17.30;;;;;;;;;;5011839;28;20021;-38
2022/09/30 03:42:46;;;;;;;22.35;16.40;;;;;;;;;;5011755;28;20120;-38
2022/09/30 03:45:21;;;;;;;26.83;16.63;;;;;;;;;;5011876;28;20045;-40
2022/09/30 03:47:49;;;;;;;28.35;17.05;;;;;;;;;;5010233;28;20028;-38
2022/09/30 03:50:16;;;;;;;25.15;16.42;;;;;;;;;;5011125;28;20485;-37
2022/09/30 03:52:41;;;;;;;24.60;17.35;;;;;;;;;;5011884;28;20519;-38
2022/09/30 03:55:08;;;;;;;24.80;16.77;;;;;;;;;;5011982;28;20022;-37
2022/09/30 03:57:33;;;;;;;22.42;16.02;;;;;;;;;;5011289;28;20084;-38
2022/09/30 03:59:59;;;;;;;25.40;17.63;;;;;;;;;;5011686;28;20448;-37
2022/09/30 04:02:25;;;;;;;32.17;17.67;;;;;;;;;;5011294;28;20247;-38
2022/09/30 04:04:50;;;;;;;28.85;18.85;;;;;;;;;;5011580;28;20041;-38
2022/09/30 04:07:15;;;;;;;30.90;18.90;;;;;;;;;;5011034;28;20057;-37
2022/09/30 04:09:41;;;;;;;30.17;19.65;;;;;;;;;;5011057;28;20250;-37
2022/09/30 04:12:06;;;;;;;27.63;17.57;;;;;;;;;;5011500;28;20087;-38
2022/09/30 04:14:32;;;;;;;26.60;18.23;;;;;;;;;;5010324;28;20731;-41
2022/09/30 04:16:57;;;;;;;25.48;16.73;;;;;;;;;;5011654;28;20450;-37
2022/09/30 04:19:23;;;;;;;28.33;17.92;;;;;;;;;;5011015;28;20029;-41
2022/09/30 04:21:52;;;;;;;29.73;17.63;;;;;;;;;;5011290;28;20052;-37
2022/09/30 04:24:17;;;;;;;29.58;18.42;;;;;;;;;;5010738;28;20180;-37
2022/09/30 04:26:42;;;;;;;26.42;17.02;;;;;;;;;;5011187;28;20138;-39
2022/09/30 04:29:07;;;;;;;27.03;16.23;;;;;;;;;;5011011;28;20028;-38
2022/09/30 04:31:33;;;;;;;25.35;16.30;;;;;;;;;;5011184;28;20706;-38
2022/09/30 04:33:58;;;;;;;24.05;16.95;;;;;;;;;;5027843;28;20024;-37
2022/09/30 04:36:23;;;;;;;19.60;15.67;;;;;;;;;;5030164;28;20048;-38
2022/09/30 04:38:48;;;;;;;23.13;15.97;;;;;;;;;;5029086;28;20247;-38
2022/09/30 04:41:15;;;;;;;24.38;16.70;;;;;;;;;;5030836;28;20235;-38
2022/09/30 04:43:43;;;;;;;21.58;15.07;;;;;;;;;;5030759;28;20117;-38
2022/09/30 04:46:09;;;;;;;21.35;14.75;;;;;;;;;;5031444;28;20018;-38
2022/09/30 04:48:34;;;;;;;21.60;15.15;;;;;;;;;;5030480;28;20047;-39
2022/09/30 04:50:59;;;;;;;23.27;15.03;;;;;;;;;;5030525;28;20013;-37
2022/09/30 04:53:24;;;;;;;21.10;15.30;;;;;;;;;;5030558;28;20242;-37
2022/09/30 04:55:50;;;;;;;25.40;16.17;;;;;;;;;;5030982;28;20017;-37
2022/09/30 04:58:15;;;;;;;26.02;16.75;;;;;;;;;;5029154;28;20016;-38
2022/09/30 05:00:41;;;;;;;25.02;16.83;;;;;;;;;;5030343;28;20022;-38
2022/09/30 05:03:06;;;;;;;22.50;16.27;;;;;;;;;;5030352;28;20021;-37
2022/09/30 05:05:32;;;;;;;23.23;15.35;;;;;;;;;;5030585;28;20025;-38
2022/09/30 05:08:03;;;;;;;28.58;18.50;;;;;;;;;;5029073;28;20065;-38
2022/09/30 05:10:29;;;;;;;29.52;19.58;;;;;;;;;;5030252;28;20494;-37
2022/09/30 05:12:54;;;;;;;29.73;20.20;;;;;;;;;;5030232;28;20056;-36
2022/09/30 05:15:20;;;;;;;34.28;21.13;;;;;;;;;;5030764;28;20022;-37
2022/09/30 05:17:47;;;;;;;32.67;22.30;;;;;;;;;;5029934;28;20123;-38
2022/09/30 05:20:13;;;;;;;38.78;22.00;;;;;;;;;;5030473;28;20017;-37
2022/09/30 05:22:38;;;;;;;37.70;23.90;;;;;;;;;;5030805;28;20021;-37
2022/09/30 05:25:04;;;;;;;37.15;24.17;;;;;;;;;;5030275;28;20267;-39
2022/09/30 05:27:29;;;;;;;34.47;23.13;;;;;;;;;;5033478;28;20059;-37
2022/09/30 05:29:54;;;;;;;35.75;23.00;;;;;;;;;;5033701;28;20135;-36
2022/09/30 05:32:21;;;;;;;38.03;23.07;;;;;;;;;;5030850;28;20017;-41
2022/09/30 05:34:46;;;;;;;34.65;22.73;;;;;;;;;;5014081;28;20263;-36
2022/09/30 05:37:12;;;;;;;57.05;27.05;;;;;;;;;;5031258;28;20534;-37
2022/09/30 05:39:37;;;;;;;37.13;22.50;;;;;;;;;;5032308;28;20021;-40
2022/09/30 05:42:02;;;;;;;39.57;24.00;;;;;;;;;;5033873;28;20026;-39
2022/09/30 05:44:28;;;;;;;32.78;21.33;;;;;;;;;;5036616;28;20247;-38
2022/09/30 05:46:53;;;;;;;33.88;21.85;;;;;;;;;;5054086;28;20033;-37
2022/09/30 05:49:18;;;;;;;35.92;21.13;;;;;;;;;;5051689;28;20017;-38
2022/09/30 05:51:43;;;;;;;30.47;20.87;;;;;;;;;;5034454;28;20436;-38
2022/09/30 05:54:09;;;;;;;29.23;19.83;;;;;;;;;;5032580;28;20247;-37
2022/09/30 05:56:37;;;;;;;31.77;20.17;;;;;;;;;;5033450;28;20021;-38
2022/09/30 05:59:02;;;;;;;33.45;21.02;;;;;;;;;;5033387;28;20032;-38
2022/09/30 06:01:28;;;;;;;32.75;22.27;;;;;;;;;;5033518;28;20021;-38
2022/09/30 06:03:53;;;;;;;34.05;22.17;;;;;;;;;;5032773;28;20220;-37
2022/09/30 06:06:20;;;;;;;39.70;21.50;;;;;;;;;;5028490;28;20075;-36
2022/09/30 06:08:45;;;;;;;35.17;21.92;;;;;;;;;;5023919;28;20128;-38
2022/09/30 06:11:12;;;;;;;36.53;21.20;;;;;;;;;;5028098;28;20116;-37
2022/09/30 06:13:38;;;;;;;34.65;22.13;;;;;;;;;;5030715;28;20064;-37
2022/09/30 06:16:04;;;;;;;32.15;22.35;;;;;;;;;;5031537;28;20069;-38
2022/09/30 06:18:29;;;;;;;35.60;22.52;;;;;;;;;;5030716;28;20048;-37
2022/09/30 06:20:55;;;;;;;29.45;20.70;;;;;;;;;;5024779;28;20404;-38
2022/09/30 06:23:21;;;;;;;33.33;21.00;;;;;;;;;;5031553;28;20017;-38
2022/09/30 06:25:50;;;;;;;30.00;19.77;;;;;;;;;;5030329;28;20475;-38
2022/09/30 06:28:15;;;;;;;27.60;20.15;;;;;;;;;;5027944;28;20520;-39
2022/09/30 06:30:42;;;;;;;32.67;19.80;;;;;;;;;;5029426;28;20032;-38
2022/09/30 06:33:07;;;;;;;32.90;20.00;;;;;;;;;;5032366;28;20020;-39
2022/09/30 06:35:33;;;;;;;30.98;18.63;;;;;;;;;;5029086;28;20029;-41
2022/09/30 06:37:58;;;;;;;26.90;19.25;;;;;;;;;;5025359;28;20025;-39
2022/09/30 06:40:24;;;;;;;29.02;18.80;;;;;;;;;;5025571;28;20100;-39
2022/09/30 06:42:50;;;;;;;31.17;19.20;;;;;;;;;;5027786;28;20057;-39
2022/09/30 06:45:17;;;;;;;26.80;18.42;;;;;;;;;;5021729;28;20053;-39
2022/09/30 06:47:43;;;;;;;27.90;17.50;;;;;;;;;;5030443;28;20029;-38
2022/09/30 06:50:09;;;;;;;29.60;18.40;;;;;;;;;;5019941;28;20017;-37
2022/09/30 06:52:34;;;;;;;29.48;19.90;;;;;;;;;;5031227;28;20014;-38
2022/09/30 06:55:00;;;;;;;26.10;18.33;;;;;;;;;;5041973;28;20082;-38
2022/09/30 06:57:26;;;;;;;30.25;17.00;;;;;;;;;;5031628;28;20143;-38
2022/09/30 06:59:53;;;;;;;21.85;16.13;;;;;;;;;;5028964;28;20477;-36
2022/09/30 07:02:18;;;;;;;24.85;15.27;;;;;;;;;;5030019;28;20014;-36
2022/09/30 07:04:43;;;;;;;22.77;14.18;;;;;;;;;;5021125;28;20040;-36
2022/09/30 07:07:09;;;;;;;21.27;13.18;;;;;;;;;;5032391;28;20029;-36
2022/09/30 07:09:34;;;;;;;21.52;12.13;;;;;;;;;;5031051;28;20056;-40
2022/09/30 07:12:00;;;;;;;20.23;11.45;;;;;;;;;;5029394;28;20032;-40
2022/09/30 07:14:25;;;;;;;18.75;11.48;;;;;;;;;;5023185;28;20021;-36
2022/09/30 07:16:52;;;;;;;18.17;11.63;;;;;;;;;;5018931;28;20051;-36
2022/09/30 07:19:21;;;;;;;15.23;10.18;;;;;;;;;;5011329;28;20094;-36
2022/09/30 07:21:46;;;;;;;;;;;;;;;;;;5012566;28;20025;-36
2022/09/30 07:24:11;;;;;;;13.70;9.10;;;;;;;;;;5011946;28;19905;-36
2022/09/30 07:26:39;;;;;;;12.73;8.23;;;;;;;;;;5011916;28;20033;-37
2022/09/30 07:29:06;;;;;;;15.45;7.30;;;;;;;;;;5026452;28;20492;-36
2022/09/30 07:31:31;;;;;;;13.55;7.53;;;;;;;;;;5031900;28;20021;-36
2022/09/30 07:33:57;;;;;;;10.02;6.97;;;;;;;;;;5048037;28;20354;-36
2022/09/30 07:36:28;;;;;;;10.63;5.78;;;;;;;;;;5044579;28;20025;-36
2022/09/30 07:38:54;;;;;;;7.28;5.32;;;;;;;;;;5029168;28;20125;-37
2022/09/30 07:41:23;;;;;;;6.88;4.32;;;;;;;;;;5030044;28;20049;-36
2022/09/30 07:43:49;;;;;;;6.45;4.22;;;;;;;;;;5029023;28;20025;-37
2022/09/30 07:46:16;;;;;;;22.63;5.03;;;;;;;;;;5029930;28;20468;-37
2022/09/30 07:48:46;;;;;;;4.57;3.78;;;;;;;;;;5028307;28;20017;-37
2022/09/30 07:51:16;;;;;;;7.32;4.03;;;;;;;;;;5029246;28;20021;-37
2022/09/30 07:53:42;;;;;;;7.05;3.78;;;;;;;;;;5031250;28;20031;-36
2022/09/30 07:56:07;;;;;;;8.38;4.22;;;;;;;;;;5031193;28;20053;-37
2022/09/30 07:58:33;;;;;;;7.70;4.80;;;;;;;;;;5030196;28;20068;-37
2022/09/30 08:00:58;;;;;;;8.32;4.28;;;;;;;;;;5030341;28;20515;-37
2022/09/30 08:03:24;;;;;;;6.75;4.93;;;;;;;;;;5030605;28;20087;-36
2022/09/30 08:05:49;;;;;;;7.90;4.95;;;;;;;;;;5031574;28;20052;-37
2022/09/30 08:08:16;;;;;;;8.65;4.43;;;;;;;;;;5030434;28;20054;-38
2022/09/30 08:10:41;;;;;;;8.77;4.68;;;;;;;;;;5030984;28;20033;-36
2022/09/30 08:13:07;;;;;;;6.70;4.83;;;;;;;;;;5030546;28;20025;-36
2022/09/30 08:15:32;;;;;;;6.78;4.25;;;;;;;;;;5031066;28;20270;-37
2022/09/30 08:17:58;;;;;;;7.20;3.90;;;;;;;;;;5030573;28;20104;-37
2022/09/30 08:20:23;;;;;;;6.43;4.38;;;;;;;;;;5030759;28;20080;-37
2022/09/30 08:22:57;;;;;;;8.13;4.47;;;;;;;;;;5031238;28;20029;-37
2022/09/30 08:25:23;;;;;;;7.75;3.30;;;;;;;;;;5030051;28;20246;-37
2022/09/30 08:27:48;;;;;;;5.07;3.05;;;;;;;;;;5030501;28;20452;-37
2022/09/30 08:30:13;;;;;;;8.63;2.22;;;;;;;;;;5030590;28;20021;-37
2022/09/30 08:32:39;;;;;;;3.33;2.17;;;;;;;;;;5036571;28;20071;-37
2022/09/30 08:35:04;;;;;;;2.30;1.90;;;;;;;;;;5050927;28;20246;-36
2022/09/30 08:37:29;;;;;;;5.22;2.08;;;;;;;;;;5051021;28;20071;-37
2022/09/30 08:39:55;;;;;;;2.58;1.50;;;;;;;;;;5050343;28;20035;-37
2022/09/30 08:42:20;;;;;;;2.07;1.30;;;;;;;;;;5050840;28;20052;-37
2022/09/30 08:44:47;;;;;;;4.23;1.40;;;;;;;;;;5037626;28;20255;-37
2022/09/30 08:47:15;;;;;;;7.18;1.50;;;;;;;;;;5030517;28;20058;-38
2022/09/30 08:49:52;;;;;;;1.13;1.00;;;;;;;;;;5030183;28;20029;-37
2022/09/30 08:52:26;;;;;;;4.18;1.30;;;;;;;;;;5030688;28;20349;-37
2022/09/30 08:54:53;;;;;;;1.48;1.20;;;;;;;;;;5030414;28;20109;-38
2022/09/30 08:57:19;;;;;;;4.88;1.30;;;;;;;;;;5030072;28;20048;-37
2022/09/30 08:59:46;;;;;;;4.22;1.88;;;;;;;;;;5030623;28;20040;-38
2022/09/30 09:02:26;;;;;;;3.33;1.80;;;;;;;;;;5034603;28;20476;-38
2022/09/30 09:04:52;;;;;;;4.15;2.20;;;;;;;;;;5034385;28;20053;-37
2022/09/30 09:07:32;;;;;;;3.78;2.30;;;;;;;;;;5033867;28;20076;-39
2022/09/30 09:10:06;;;;;;;4.65;1.13;;;;;;;;;;5033840;28;20057;-37
2022/09/30 09:12:38;;;;;;;4.97;1.70;;;;;;;;;;5034523;28;20038;-38
2022/09/30 09:15:03;;;;;;;1.20;1.10;;;;;;;;;;5034193;28;20022;-38
2022/09/30 09:17:47;;;;;;;1.30;1.20;;;;;;;;;;5033626;28;20020;-38
2022/09/30 09:20:14;;;;;;;2.05;1.52;;;;;;;;;;5034037;28;20484;-38
2022/09/30 09:22:40;;;;;;;2.40;1.45;;;;;;;;;;5033960;28;20024;-37
2022/09/30 09:25:05;;;;;;;1.83;1.30;;;;;;;;;;5033882;28;20101;-37
2022/09/30 09:27:37;;;;;;;3.60;1.50;;;;;;;;;;5033376;28;20436;-38
2022/09/30 09:30:08;;;;;;;1.80;1.33;;;;;;;;;;5029983;28;20029;-38
2022/09/30 09:32:34;;;;;;;1.85;1.38;;;;;;;;;;5038560;28;20025;-39
2022/09/30 09:35:03;;;;;;;4.90;1.30;;;;;;;;;;5034068;28;20361;-39
2022/09/30 09:40:33;;;;;;;3.25;1.50;;;;;;;;;;5023266;28;20072;-39
2022/09/30 09:43:12;;;;;;;2.75;1.05;;;;;;;;;;5029843;28;20028;-40
2022/09/30 09:45:40;;;;;;;2.83;1.15;;;;;;;;;;5026680;28;20040;-39
2022/09/30 09:48:12;;;;;;;1.95;1.13;;;;;;;;;;5028602;28;20081;-37
2022/09/30 09:50:45;;;;;;;2.40;1.00;;;;;;;;;;5022236;28;20033;-41
2022/09/30 09:53:29;;;;;;;11.18;1.20;;;;;;;;;;5025792;28;20107;-41
2022/09/30 09:55:58;;;;;;;2.20;1.10;;;;;;;;;;5028358;28;20018;-39
2022/09/30 09:58:24;;;;;;;;;;;;;;;;;;5033970;28;20017;-39
2022/09/30 10:03:23;;;;;;;3.50;1.33;;;;;;;;;;5031644;28;20023;-39
2022/09/30 10:05:58;;;;;;;1.98;1.30;;;;;;;;;;5031804;28;20024;-40
2022/09/30 10:08:23;;;;;;;3.15;1.40;;;;;;;;;;5031202;28;20049;-39
2022/09/30 10:10:50;;;;;;;4.23;1.20;;;;;;;;;;5033939;28;20036;-40
2022/09/30 10:13:19;;;;;;;1.40;0.98;;;;;;;;;;5031961;28;20292;-39
2022/09/30 10:15:45;;;;;;;3.15;0.90;;;;;;;;;;5032194;28;20112;-39
2022/09/30 10:18:23;;;;;;;2.00;0.90;;;;;;;;;;5032118;28;20061;-40
2022/09/30 10:20:50;;;;;;;2.75;0.93;;;;;;;;;;5032996;28;20048;-40
2022/09/30 10:23:25;;;;;;;2.05;0.82;;;;;;;;;;5023448;28;20024;-41
2022/09/30 10:26:14;;;;;;;4.80;1.00;;;;;;;;;;5033196;28;20025;-39
2022/09/30 10:29:05;;;;;;;4.38;0.80;;;;;;;;;;5032144;28;20041;-39
2022/09/30 10:31:35;;;;;;;3.33;0.77;;;;;;;;;;5033628;28;20091;-38
2022/09/30 10:34:07;;;;;;;0.73;0.60;;;;;;;;;;5049917;28;20109;-39
2022/09/30 10:36:33;;;;;;;0.60;0.57;;;;;;;;;;5053007;28;20400;-44
2022/09/30 10:39:00;;;;;;;4.80;0.80;;;;;;;;;;5039344;28;20029;-40
2022/09/30 10:41:27;;;;;;;1.45;0.90;;;;;;;;;;5022706;28;20046;-39
2022/09/30 10:43:54;;;;;;;1.15;0.63;;;;;;;;;;5027550;28;20116;-39
2022/09/30 10:46:22;;;;;;;0.90;0.52;;;;;;;;;;5028376;28;20021;-38
2022/09/30 10:48:48;;;;;;;2.63;0.80;;;;;;;;;;5033813;28;20033;-40
2022/09/30 10:51:19;;;;;;;1.90;0.80;;;;;;;;;;5030916;28;20084;-38
2022/09/30 10:53:45;;;;;;;1.58;0.40;;;;;;;;;;5040705;28;20037;-39
2022/09/30 10:56:10;;;;;;;2.40;0.60;;;;;;;;;;5027570;28;20120;-37
2022/09/30 10:58:35;;;;;;;2.75;0.40;;;;;;;;;;5029048;28;20029;-39
2022/09/30 11:01:05;;;;;;;2.50;1.50;;;;;;;;;;5023188;28;20026;-38
2022/09/30 11:03:38;;;;;;;2.13;0.65;;;;;;;;;;5038700;28;20021;-38
2022/09/30 11:06:05;;;;;;;3.55;0.80;;;;;;;;;;5045815;28;20033;-40
2022/09/30 11:09:02;;;;;;;0.73;0.63;;;;;;;;;;5051150;28;20138;-39
2022/09/30 11:11:33;;;;;;;3.90;1.05;;;;;;;;;;5010847;28;20064;-38
2022/09/30 11:14:01;;;;;;;7.22;2.33;;;;;;;;;;5029063;28;20021;-38
2022/09/30 11:16:28;;;;;;;1.17;0.80;;;;;;;;;;5030151;28;20473;-38
2022/09/30 11:19:12;;;;;;;0.77;0.60;;;;;;;;;;5012782;28;20100;-38
2022/09/30 11:21:43;;;;;;;2.53;0.90;;;;;;;;;;5019415;28;20024;-38
2022/09/30 11:24:11;;;;;;;2.15;1.02;;;;;;;;;;5009715;28;20329;-38
2022/09/30 11:26:55;;;;;;;3.17;0.98;;;;;;;;;;5010175;28;20079;-39
2022/09/30 11:29:47;;;;;;;4.65;0.93;;;;;;;;;;5026245;28;20488;-39
2022/09/30 11:32:22;;;;;;;1.30;0.75;;;;;;;;;;5027961;28;20026;-38
2022/09/30 11:35:08;;;;;;;1.08;0.60;;;;;;;;;;5014518;28;20028;-38
2022/09/30 11:37:52;;;;;;;2.88;0.93;;;;;;;;;;5026453;28;20025;-38
2022/09/30 11:40:33;;;;;;;2.67;0.90;;;;;;;;;;5030096;28;20033;-37
2022/09/30 11:43:03;;;;;;;2.47;0.70;;;;;;;;;;5030641;28;20079;-39
2022/09/30 11:45:38;;;;;;;3.08;1.00;;;;;;;;;;5017483;28;20469;-38
2022/09/30 11:48:09;;;;;;;0.50;0.50;;;;;;;;;;5023906;28;20037;-39
2022/09/30 11:50:47;;;;;;;2.05;1.10;;;;;;;;;;5015053;28;20057;-47
2022/09/30 11:53:12;;;;;;;2.22;0.95;;;;;;;;;;5018293;28;20057;-37
2022/09/30 11:55:41;;;;;;;2.00;0.50;;;;;;;;;;5032341;28;20053;-38
2022/09/30 11:58:16;;;;;;;1.40;0.50;;;;;;;;;;5029585;28;20021;-38
2022/09/30 12:00:43;;;;;;;0.50;0.50;;;;;;;;;;5019275;28;20428;-37
2022/09/30 12:03:09;;;;;;;3.20;0.90;;;;;;;;;;5020287;28;20044;-37
2022/09/30 12:05:43;;;;;;;2.45;0.57;;;;;;;;;;5040440;28;20373;-38
2022/09/30 12:08:21;;;;;;;0.60;0.50;;;;;;;;;;5047751;28;20057;-38
2022/09/30 12:10:55;;;;;;;0.65;0.47;;;;;;;;;;5030484;28;20079;-38
2022/09/30 12:13:38;;;;;;;1.50;0.60;;;;;;;;;;5030476;28;20104;-38
2022/09/30 12:16:07;;;;;;;1.05;0.50;;;;;;;;;;5027141;28;20025;-38
2022/09/30 12:18:36;;;;;;;1.02;0.93;;;;;;;;;;5024776;28;20031;-38
2022/09/30 12:21:17;;;;;;;1.92;0.50;;;;;;;;;;5025711;28;20029;-38
2022/09/30 12:23:45;;;;;;;2.70;0.50;;;;;;;;;;5022824;28;20519;-38
2022/09/30 12:26:11;;;;;;;0.43;0.40;;;;;;;;;;5029327;28;20025;-38
2022/09/30 12:31:37;;;;;;;1.10;0.50;;;;;;;;;;5031044;28;20563;-38
2022/09/30 12:34:03;;;;;;;2.05;0.60;;;;;;;;;;5046250;28;20407;-37
2022/09/30 12:36:38;;;;;;;1.23;0.60;;;;;;;;;;5054542;28;20029;-39
2022/09/30 12:39:22;;;;;;;1.67;0.47;;;;;;;;;;5053428;28;20028;-37
2022/09/30 12:42:06;;;;;;;0.50;0.45;;;;;;;;;;5055172;28;20461;-38
2022/09/30 12:44:34;;;;;;;0.93;0.40;;;;;;;;;;5054615;28;20036;-40
2022/09/30 12:46:59;;;;;;;1.70;0.60;;;;;;;;;;5034822;28;20481;-37
2022/09/30 12:49:26;;;;;;;0.30;0.30;;;;;;;;;;5034471;28;20083;-37
2022/09/30 12:51:54;;;;;;;0.50;0.50;;;;;;;;;;5035010;28;20333;-38
2022/09/30 12:54:31;;;;;;;2.20;0.47;;;;;;;;;;5034627;28;20020;-38
2022/09/30 12:56:59;;;;;;;1.45;0.40;;;;;;;;;;5034460;28;20022;-39
2022/09/30 12:59:27;;;;;;;0.20;0.20;;;;;;;;;;5033940;28;20022;-38
2022/09/30 13:01:52;;;;;;;1.02;0.45;;;;;;;;;;5034063;28;20021;-38
2022/09/30 13:04:33;;;;;;;0.80;0.50;;;;;;;;;;5034504;28;20028;-36
2022/09/30 13:06:58;;;;;;;1.83;0.60;;;;;;;;;;5033914;28;20504;-36
2022/09/30 13:09:33;;;;;;;1.10;0.40;;;;;;;;;;5027134;28;20132;-38
2022/09/30 13:11:58;;;;;;;0.88;0.60;;;;;;;;;;5028602;28;20030;-37
2022/09/30 13:14:26;;;;;;;4.77;0.60;;;;;;;;;;5031383;28;20483;-38
2022/09/30 13:17:20;;;;;;;6.50;1.13;;;;;;;;;;5032192;28;20033;-38
2022/09/30 13:19:47;;;;;;;3.03;1.27;;;;;;;;;;5025421;28;20025;-37
2022/09/30 13:22:28;;;;;;;1.20;0.82;;;;;;;;;;5030497;28;20484;-38
2022/09/30 13:25:01;;;;;;;1.23;0.80;;;;;;;;;;5042852;28;20029;-38
2022/09/30 13:27:45;;;;;;;2.88;0.70;;;;;;;;;;5029679;28;20430;-38
2022/09/30 13:30:14;;;;;;;3.50;0.63;;;;;;;;;;5032529;28;20021;-39
2022/09/30 13:32:41;;;;;;;0.47;0.40;;;;;;;;;;5016532;28;20490;-38
2022/09/30 13:35:25;;;;;;;0.93;0.50;;;;;;;;;;5032467;28;20025;-38
2022/09/30 13:38:09;;;;;;;0.65;0.60;;;;;;;;;;5031226;28;20416;-42
2022/09/30 13:40:36;;;;;;;0.75;0.75;;;;;;;;;;5026725;28;20029;-39
2022/09/30 13:43:03;;;;;;;1.05;0.75;;;;;;;;;;5027618;28;20056;-39
2022/09/30 13:45:32;;;;;;;3.22;2.00;;;;;;;;;;5033500;28;20060;-38
2022/09/30 13:48:09;;;;;;;7.22;0.70;;;;;;;;;;5032728;28;20401;-39
2022/09/30 13:50:44;;;;;;;1.65;0.80;;;;;;;;;;5032878;28;20029;-39
2022/09/30 13:53:12;;;;;;;1.77;0.63;;;;;;;;;;5033678;28;20417;-40
2022/09/30 13:55:40;;;;;;;1.13;0.90;;;;;;;;;;5033459;28;20079;-38
2022/09/30 13:58:06;;;;;;;6.32;1.02;;;;;;;;;;5033341;28;20032;-39
2022/09/30 14:00:57;;;;;;;1.75;0.90;;;;;;;;;;5033339;28;20092;-38
2022/09/30 14:03:38;;;;;;;4.10;0.60;;;;;;;;;;5033073;28;20037;-39
2022/09/30 14:06:07;;;;;;;1.88;0.70;;;;;;;;;;5033203;28;20030;-39
2022/09/30 14:08:47;;;;;;;0.50;0.50;;;;;;;;;;5033100;28;20041;-39
2022/09/30 14:11:36;;;;;;;1.88;0.70;;;;;;;;;;5033448;28;20148;-39
2022/09/30 14:14:01;;;;;;;4.50;1.05;;;;;;;;;;5033106;28;20538;-39
2022/09/30 14:16:43;;;;;;;0.60;0.60;;;;;;;;;;5033092;28;20096;-41
2022/09/30 14:19:44;;;;;;;0.60;0.60;;;;;;;;;;5032757;28;20479;-38
2022/09/30 14:22:10;;;;;;;2.53;0.73;;;;;;;;;;5030845;28;20067;-38
2022/09/30 14:24:36;;;;;;;0.50;0.50;;;;;;;;;;5032192;28;20064;-39
2022/09/30 14:27:05;;;;;;;4.25;0.65;;;;;;;;;;5032986;28;20097;-39
2022/09/30 14:29:33;;;;;;;0.40;0.40;;;;;;;;;;5032823;28;20025;-39
2022/09/30 14:31:58;;;;;;;1.13;0.50;;;;;;;;;;5033256;28;20251;-38
2022/09/30 14:34:24;;;;;;;2.25;0.70;;;;;;;;;;5032821;28;20032;-39
2022/09/30 14:36:51;;;;;;;0.80;0.60;;;;;;;;;;5032773;28;20093;-39
2022/09/30 14:39:18;;;;;;;0.77;0.60;;;;;;;;;;5032169;28;20022;-39
2022/09/30 14:41:52;;;;;;;3.05;0.45;;;;;;;;;;5033267;28;20021;-38
2022/09/30 14:44:18;;;;;;;1.52;0.60;;;;;;;;;;5032719;28;20358;-38
2022/09/30 14:46:46;;;;;;;0.68;0.32;;;;;;;;;;5033016;28;20021;-38
2022/09/30 14:49:27;;;;;;;1.65;0.70;;;;;;;;;;5031863;28;20022;-39
2022/09/30 14:51:52;;;;;;;2.05;1.42;;;;;;;;;;5032547;28;20393;-40
2022/09/30 14:54:19;;;;;;;4.80;2.58;;;;;;;;;;5032683;28;20014;-38